createdAt,value
2018-06-01T00:00:34.326Z,81.26
2018-06-01T00:01:44.506Z,81.74
2018-06-01T00:02:54.332Z,81.55
2018-06-01T00:04:04.432Z,81.55
2018-06-01T00:05:14.538Z,81.55
2018-06-01T00:06:24.636Z,81.35
2018-06-01T00:07:34.705Z,81.55
2018-06-01T00:08:44.777Z,81.55
2018-06-01T00:09:54.884Z,81.35
2018-06-01T00:11:04.961Z,81.74
2018-06-01T00:12:15.037Z,81.74
2018-06-01T00:13:24.869Z,81.51
2018-06-01T00:14:34.679Z,81.51
2018-06-01T00:15:44.494Z,81.51
2018-06-01T00:16:54.373Z,81.32
2018-06-01T00:18:04.444Z,81.7
2018-06-01T00:19:14.527Z,81.51
2018-06-01T00:20:24.625Z,81.41
2018-06-01T00:21:34.712Z,81.41
2018-06-01T00:22:44.790Z,81.41
2018-06-01T00:23:54.876Z,81.41
2018-06-01T00:25:04.984Z,81.41
2018-06-01T00:26:14.913Z,81.41
2018-06-01T00:27:24.986Z,81.41
2018-06-01T00:28:34.806Z,81.51
2018-06-01T00:29:44.897Z,81.51
2018-06-01T00:30:54.752Z,81.6
2018-06-01T00:32:04.837Z,81.51
2018-06-01T00:33:14.655Z,81.51
2018-06-01T00:34:24.730Z,81.51
2018-06-01T00:35:34.837Z,81.32
2018-06-01T00:36:44.941Z,81.41
2018-06-01T00:37:55.006Z,81.41
2018-06-01T00:39:04.838Z,81.22
2018-06-01T00:40:14.916Z,81.41
2018-06-01T00:41:25.009Z,81.7
2018-06-01T00:42:35.114Z,81.41
2018-06-01T00:43:45.204Z,81.51
2018-06-01T00:44:55.296Z,81.6
2018-06-01T00:46:05.145Z,81.7
2018-06-01T00:47:15.228Z,81.8
2018-06-01T00:48:25.096Z,81.57
2018-06-01T00:49:34.653Z,81.41
2018-06-01T00:50:44.493Z,81.32
2018-06-01T00:51:54.668Z,81.7
2018-06-01T00:53:04.757Z,81.51
2018-06-01T00:54:14.847Z,81.41
2018-06-01T00:55:24.927Z,81.51
2018-06-01T00:56:35.008Z,81.47
2018-06-01T00:57:44.841Z,81.37
2018-06-01T00:58:54.931Z,81.37
2018-06-01T01:00:05.010Z,81.47
2018-06-01T01:01:15.089Z,81.47
2018-06-01T01:02:25.174Z,81.57
2018-06-01T01:03:35.304Z,81.27
2018-06-01T01:04:45.398Z,81.66
2018-06-01T01:05:55.202Z,81.27
2018-06-01T01:07:05.290Z,81.27
2018-06-01T01:08:15.100Z,81.57
2018-06-01T01:09:25.202Z,81.66
2018-06-01T01:10:35.289Z,81.37
2018-06-01T01:11:45.372Z,81.09
2018-06-01T01:12:55.197Z,81.76
2018-06-01T01:14:05.292Z,81.47
2018-06-01T01:15:15.441Z,81.47
2018-06-01T01:16:25.519Z,81.47
2018-06-01T01:17:35.623Z,81.47
2018-06-01T01:18:45.713Z,81.85
2018-06-01T01:19:55.796Z,81.47
2018-06-01T01:21:05.876Z,81.76
2018-06-01T01:22:15.956Z,81.37
2018-06-01T01:23:25.783Z,81.62
2018-06-01T01:24:35.878Z,81.57
2018-06-01T01:25:45.947Z,81.62
2018-06-01T01:26:55.754Z,81.18
2018-06-01T01:28:05.821Z,81.57
2018-06-01T01:29:15.916Z,81.43
2018-06-01T01:30:25.468Z,81.62
2018-06-01T01:31:35.020Z,81.43
2018-06-01T01:32:44.831Z,81.27
2018-06-01T01:33:54.644Z,81.37
2018-06-01T01:35:04.467Z,81.76
2018-06-01T01:36:14.283Z,81.33
2018-06-01T01:37:24.367Z,81.24
2018-06-01T01:38:34.519Z,81.76
2018-06-01T01:39:44.341Z,81.72
2018-06-01T01:40:54.432Z,81.66
2018-06-01T01:42:04.254Z,81.33
2018-06-01T01:43:14.335Z,81.43
2018-06-01T01:44:24.468Z,81.81
2018-06-01T01:45:34.564Z,81.81
2018-06-01T01:46:45.401Z,81.81
2018-06-01T01:47:55.487Z,81.72
2018-06-01T01:49:05.559Z,81.52
2018-06-01T01:50:15.115Z,81.72
2018-06-01T01:51:25.185Z,81.81
2018-06-01T01:52:35.075Z,81.72
2018-06-01T01:53:45.167Z,81.33
2018-06-01T01:54:54.980Z,81.24
2018-06-01T01:56:05.088Z,81.62
2018-06-01T01:57:15.161Z,81.52
2018-06-01T01:58:25.235Z,81.72
2018-06-01T01:59:35.318Z,81.43
2018-06-01T02:00:45.395Z,81.52
2018-06-01T02:01:55.504Z,81.43
2018-06-01T02:03:05.602Z,82.01
2018-06-01T02:04:15.427Z,81.81
2018-06-01T02:05:25.512Z,81.52
2018-06-01T02:06:35.582Z,81.72
2018-06-01T02:07:45.450Z,81.62
2018-06-01T02:08:55.281Z,81.33
2018-06-01T02:10:05.356Z,81.52
2018-06-01T02:11:15.449Z,81.52
2018-06-01T02:12:25.541Z,81.72
2018-06-01T02:13:35.362Z,81.43
2018-06-01T02:14:45.433Z,81.43
2018-06-01T02:15:55.516Z,81.43
2018-06-01T02:17:05.620Z,81.43
2018-06-01T02:18:15.704Z,81.24
2018-06-01T02:19:25.561Z,81.91
2018-06-01T02:20:35.640Z,81.62
2018-06-01T02:21:45.728Z,81.43
2018-06-01T02:22:55.818Z,81.33
2018-06-01T02:24:05.889Z,81.72
2018-06-01T02:25:15.749Z,81.24
2018-06-01T02:26:25.566Z,81.33
2018-06-01T02:27:35.129Z,81.24
2018-06-01T02:28:45.260Z,81.14
2018-06-01T02:29:55.338Z,81.33
2018-06-01T02:31:05.423Z,81.43
2018-06-01T02:32:15.254Z,81.43
2018-06-01T02:33:25.346Z,81.24
2018-06-01T02:34:35.452Z,81.62
2018-06-01T02:35:45.555Z,81.43
2018-06-01T02:36:54.846Z,81.33
2018-06-01T02:38:04.664Z,81.24
2018-06-01T02:39:14.755Z,81.43
2018-06-01T02:40:24.853Z,81.62
2018-06-01T02:41:34.944Z,81.43
2018-06-01T02:42:45.019Z,81.72
2018-06-01T02:43:55.093Z,81.43
2018-06-01T02:45:05.184Z,81.62
2018-06-01T02:46:15.267Z,81.62
2018-06-01T02:47:25.093Z,81.14
2018-06-01T02:48:35.175Z,81.14
2018-06-01T02:49:44.995Z,81.33
2018-06-01T02:50:55.090Z,81.52
2018-06-01T02:52:05.174Z,81.33
2018-06-01T02:53:15.253Z,81.52
2018-06-01T02:54:25.071Z,81.24
2018-06-01T02:55:35.153Z,81.24
2018-06-01T02:56:44.962Z,81.24
2018-06-01T02:57:55.060Z,81.24
2018-06-01T02:59:05.150Z,81.43
2018-06-01T03:00:15.248Z,81.04
2018-06-01T03:01:25.096Z,81.43
2018-06-01T03:02:34.662Z,81.04
2018-06-01T03:35:05.605Z,75.73
2018-06-01T03:36:15.399Z,75.63
2018-06-01T03:37:24.938Z,76.5
2018-06-01T03:38:35.014Z,76.69
2018-06-01T03:39:45.084Z,77.56
2018-06-01T03:40:54.951Z,77.84
2018-06-01T03:42:05.015Z,78.65
2018-06-01T03:43:15.089Z,78.65
2018-06-01T03:44:24.902Z,79.17
2018-06-01T03:45:34.964Z,79.08
2018-06-01T03:46:44.557Z,79.46
2018-06-01T03:47:54.625Z,79.02
2018-06-01T03:49:04.699Z,79.31
2018-06-01T03:50:14.786Z,79.31
2018-06-01T03:51:24.606Z,79.5
2018-06-01T03:52:34.736Z,79.35
2018-06-01T03:53:44.817Z,79.54
2018-06-01T03:54:54.632Z,79.68
2018-06-01T03:56:04.717Z,79.68
2018-06-01T03:57:14.787Z,79.43
2018-06-01T03:58:24.870Z,79.24
2018-06-01T03:59:34.960Z,79.43
2018-06-01T04:00:45.028Z,79.08
2018-06-01T04:01:55.120Z,79.17
2018-06-01T04:03:04.949Z,79.22
2018-06-01T04:04:15.083Z,79.5
2018-06-01T04:05:25.186Z,79.31
2018-06-01T04:06:35.281Z,79.5
2018-06-01T04:07:45.360Z,79.74
2018-06-01T04:08:55.450Z,78.58
2018-06-01T04:10:05.359Z,78.91
2018-06-01T04:11:15.178Z,78.91
2018-06-01T04:12:25.273Z,79
2018-06-01T04:13:35.094Z,79.29
2018-06-01T04:14:45.176Z,79.14
2018-06-01T04:15:54.999Z,79.33
2018-06-01T04:17:04.837Z,79.14
2018-06-01T04:18:14.908Z,78.75
2018-06-01T04:19:24.730Z,78.11
2018-06-01T04:20:34.821Z,76.45
2018-06-01T04:21:44.369Z,75.55
2018-06-01T04:22:54.461Z,75.3
2018-06-01T04:24:04.553Z,74.95
2018-06-01T04:25:14.638Z,74.82
2018-06-01T04:26:24.715Z,74.82
2018-06-01T04:27:34.863Z,74.82
2018-06-01T04:28:45.156Z,75.35
2018-06-01T04:29:54.724Z,74.28
2018-06-01T04:31:04.556Z,73.93
2018-06-01T04:32:14.629Z,74.45
2018-06-01T04:33:24.466Z,74.29
2018-06-01T04:34:34.558Z,73.35
2018-06-01T04:35:44.639Z,72.84
2018-06-01T04:36:54.716Z,71.94
2018-06-01T04:38:04.548Z,71.97
2018-06-01T04:39:14.670Z,71.88
2018-06-01T04:40:24.762Z,71.84
2018-06-01T04:41:35.022Z,72.04
2018-06-01T04:42:45.109Z,72.17
2018-06-01T04:43:55.171Z,72.17
2018-06-01T04:45:05.253Z,71.91
2018-06-01T04:46:15.324Z,71.72
2018-06-01T04:47:24.875Z,71.81
2018-06-01T04:48:34.953Z,72.05
2018-06-01T04:49:44.535Z,71.89
2018-06-01T04:50:54.357Z,72.08
2018-06-01T04:52:04.444Z,72.38
2018-06-01T04:53:14.557Z,72.47
2018-06-01T04:54:24.631Z,72.02
2018-06-01T04:55:34.447Z,72.35
2018-06-01T04:56:44.539Z,71.86
2018-06-01T04:57:54.355Z,71.86
2018-06-01T04:59:04.447Z,71.11
2018-06-01T05:00:14.529Z,70.46
2018-06-01T05:01:24.363Z,71.08
2018-06-01T05:02:34.198Z,70.98
2018-06-01T05:03:44.289Z,70.23
2018-06-01T05:04:54.380Z,70.36
2018-06-01T05:06:04.222Z,70.26
2018-06-01T05:07:14.095Z,70.59
2018-06-01T05:08:24.181Z,70.59
2018-06-01T05:09:34.270Z,70.4
2018-06-01T05:10:44.376Z,70.2
2018-06-01T05:11:54.208Z,70.59
2018-06-01T05:13:04.046Z,70.33
2018-06-01T05:14:13.875Z,70.2
2018-06-01T05:15:23.954Z,70.14
2018-06-01T05:16:34.133Z,70.43
2018-06-01T05:17:44.520Z,70.43
2018-06-01T05:18:54.635Z,70.14
2018-06-01T05:20:04.469Z,70.56
2018-06-01T05:21:14.626Z,70.17
2018-06-01T05:22:24.776Z,69.71
2018-06-01T05:23:34.844Z,70.2
2018-06-01T05:24:44.931Z,70.1
2018-06-01T05:25:54.780Z,70.3
2018-06-01T05:27:04.595Z,70.1
2018-06-01T05:28:14.697Z,69.91
2018-06-01T05:29:24.780Z,70.1
2018-06-01T05:30:34.870Z,69.81
2018-06-01T05:31:44.742Z,69.91
2018-06-01T05:32:54.843Z,70.14
2018-06-01T05:34:04.941Z,70.04
2018-06-01T05:35:14.764Z,69.94
2018-06-01T05:36:24.907Z,70.24
2018-06-01T05:37:34.995Z,70.53
2018-06-01T05:38:45.080Z,70.53
2018-06-01T05:39:55.159Z,70.34
2018-06-01T05:41:05.247Z,70.43
2018-06-01T05:42:15.077Z,70.14
2018-06-01T05:43:25.166Z,70.53
2018-06-01T05:44:34.981Z,70.53
2018-06-01T05:45:44.802Z,70.43
2018-06-01T05:46:54.899Z,70.43
2018-06-01T05:48:04.988Z,70.24
2018-06-01T05:49:15.095Z,70.93
2018-06-01T05:50:25.184Z,71.03
2018-06-01T05:51:35.279Z,71.22
2018-06-01T05:52:44.563Z,70.93
2018-06-01T05:53:54.648Z,71.52
2018-06-01T05:55:04.555Z,71.22
2018-06-01T05:56:14.641Z,71.12
2018-06-01T05:57:24.487Z,71.19
2018-06-01T05:58:34.581Z,72.14
2018-06-01T05:59:44.666Z,71.65
2018-06-01T06:00:54.794Z,71.61
2018-06-01T06:02:04.630Z,72.44
2018-06-01T06:03:14.751Z,73.94
2018-06-01T06:04:24.881Z,75.14
2018-06-01T06:05:34.757Z,75.03
2018-06-01T06:06:44.582Z,76.27
2018-06-01T06:07:54.409Z,76
2018-06-01T06:09:04.511Z,76.2
2018-06-01T06:10:14.591Z,76.06
2018-06-01T06:11:24.722Z,76.35
2018-06-01T06:12:34.577Z,76.42
2018-06-01T06:13:44.656Z,76.03
2018-06-01T06:14:54.746Z,75.79
2018-06-01T06:16:04.571Z,75.99
2018-06-01T06:17:14.419Z,76.09
2018-06-01T06:18:24.512Z,75.83
2018-06-01T06:19:34.594Z,74.85
2018-06-01T06:20:44.678Z,74.88
2018-06-01T06:21:54.496Z,74.4
2018-06-01T06:23:04.596Z,74.33
2018-06-01T06:24:14.144Z,74.43
2018-06-01T06:25:24.257Z,74.43
2018-06-01T06:26:34.361Z,74.43
2018-06-01T06:27:44.464Z,74.53
2018-06-01T06:28:54.569Z,74.43
2018-06-01T06:30:04.433Z,74.92
2018-06-01T06:31:14.531Z,74.43
2018-06-01T06:32:24.456Z,74.33
2018-06-01T06:33:34.565Z,74.92
2018-06-01T06:34:44.650Z,74.82
2018-06-01T06:35:54.837Z,75.28
2018-06-01T06:37:04.725Z,74.79
2018-06-01T06:38:14.822Z,75.48
2018-06-01T06:39:24.661Z,75.83
2018-06-01T06:40:34.770Z,76.12
2018-06-01T06:41:44.867Z,75.83
2018-06-01T06:42:55.222Z,76.97
2018-06-01T06:44:05.045Z,76.87
2018-06-01T06:45:15.120Z,76.83
2018-06-01T06:46:25.228Z,77.22
2018-06-01T06:47:35.373Z,76.93
2018-06-01T06:48:45.217Z,77.38
2018-06-01T06:49:55.046Z,77.38
2018-06-01T06:51:05.138Z,77.09
2018-06-01T06:52:15.219Z,76.89
2018-06-01T06:53:24.821Z,76.7
2018-06-01T06:54:34.648Z,76.7
2018-06-01T06:55:44.770Z,76.4
2018-06-01T06:56:54.592Z,76.15
2018-06-01T06:58:04.424Z,75.76
2018-06-01T06:59:14.538Z,76.05
2018-06-01T07:00:24.373Z,75.99
2018-06-01T07:01:34.478Z,74.62
2018-06-01T07:02:44.417Z,74.55
2018-06-01T07:03:54.274Z,74.88
2018-06-01T07:05:04.374Z,74.43
2018-06-01T07:06:13.948Z,74.33
2018-06-01T07:07:24.047Z,75.05
2018-06-01T07:08:34.129Z,74.96
2018-06-01T07:09:44.224Z,74.76
2018-06-01T07:10:54.455Z,75.12
2018-06-01T07:12:04.564Z,75.51
2018-06-01T07:13:14.650Z,75.61
2018-06-01T07:14:24.471Z,75.77
2018-06-01T07:15:34.566Z,75.87
2018-06-01T07:16:44.706Z,75.77
2018-06-01T07:17:54.803Z,76.16
2018-06-01T07:19:04.626Z,75.38
2018-06-01T07:20:14.729Z,74.98
2018-06-01T07:21:24.971Z,74.43
2018-06-01T07:22:35.232Z,74.57
2018-06-01T07:23:45.063Z,74.41
2018-06-01T07:24:55.213Z,74.15
2018-06-01T07:26:05.295Z,74.29
2018-06-01T07:27:15.391Z,74.29
2018-06-01T07:28:25.500Z,74.29
2018-06-01T07:29:35.622Z,74.48
2018-06-01T07:30:45.708Z,74.29
2018-06-01T07:31:55.828Z,74.77
2018-06-01T07:33:05.932Z,74.68
2018-06-01T07:34:15.561Z,75.07
2018-06-01T07:35:25.653Z,74.87
2018-06-01T07:36:35.502Z,75.16
2018-06-01T07:37:45.343Z,75.62
2018-06-01T07:38:55.264Z,75.72
2018-06-01T07:40:05.337Z,75.88
2018-06-01T07:41:15.170Z,76.14
2018-06-01T07:42:25.261Z,76.33
2018-06-01T07:43:35.092Z,76.68
2018-06-01T07:44:44.923Z,76.78
2018-06-01T07:45:54.792Z,76.78
2018-06-01T07:47:04.879Z,77.04
2018-06-01T07:48:14.960Z,76.94
2018-06-01T07:49:25.076Z,77
2018-06-01T07:50:34.936Z,77.1
2018-06-01T07:51:45.070Z,77
2018-06-01T07:52:54.635Z,77
2018-06-01T07:54:04.717Z,77.14
2018-06-01T07:55:14.272Z,76.65
2018-06-01T07:56:24.369Z,76.75
2018-06-01T07:57:34.518Z,76.16
2018-06-01T07:58:44.336Z,76.06
2018-06-01T07:59:54.429Z,76.35
2018-06-01T08:01:04.277Z,75.9
2018-06-01T08:02:14.363Z,76.2
2018-06-01T08:03:24.449Z,76
2018-06-01T08:04:34.731Z,75.9
2018-06-01T08:05:44.812Z,76.29
2018-06-01T08:06:54.364Z,75.71
2018-06-01T08:08:03.922Z,75.61
2018-06-01T08:09:14.129Z,75.81
2018-06-01T08:10:24.381Z,76.23
2018-06-01T08:11:34.492Z,76.23
2018-06-01T08:12:44.306Z,75.84
2018-06-01T08:13:54.412Z,75.74
2018-06-01T08:15:04.005Z,75.94
2018-06-01T08:16:14.085Z,75.78
2018-06-01T08:17:24.194Z,76.37
2018-06-01T08:18:34.278Z,76.37
2018-06-01T08:19:44.365Z,75.78
2018-06-01T08:20:54.508Z,75.98
2018-06-01T08:22:04.095Z,75.88
2018-06-01T08:23:14.193Z,76.17
2018-06-01T08:24:24.013Z,76.27
2018-06-01T08:25:34.104Z,76.37
2018-06-01T08:26:44.187Z,75.88
2018-06-01T08:27:54.285Z,76.17
2018-06-01T08:29:04.114Z,76.17
2018-06-01T08:30:13.952Z,75.98
2018-06-01T08:31:23.759Z,75.98
2018-06-01T08:32:34.001Z,75.88
2018-06-01T08:33:44.244Z,76.27
2018-06-01T08:34:54.331Z,76.21
2018-06-01T08:36:04.410Z,75.82
2018-06-01T08:37:14.509Z,76.4
2018-06-01T08:38:24.613Z,76.4
2018-06-01T08:39:34.840Z,75.82
2018-06-01T08:40:44.936Z,76.11
2018-06-01T08:41:55.004Z,75.82
2018-06-01T08:43:05.115Z,76.31
2018-06-01T08:44:15.223Z,75.82
2018-06-01T08:45:25.047Z,76.05
2018-06-01T08:46:35.222Z,76.15
2018-06-01T08:47:45.515Z,75.76
2018-06-01T08:48:55.081Z,75.76
2018-06-01T08:50:05.164Z,76.25
2018-06-01T08:51:15.261Z,75.66
2018-06-01T08:52:25.100Z,75.7
2018-06-01T08:53:35.161Z,75.79
2018-06-01T08:54:45.003Z,75.3
2018-06-01T08:55:54.834Z,75.34
2018-06-01T08:57:04.937Z,75.44
2018-06-01T08:58:14.781Z,75.24
2018-06-01T08:59:24.905Z,75.54
2018-06-01T09:00:35.002Z,74.95
2018-06-01T09:01:45.100Z,75.37
2018-06-01T09:02:54.957Z,75.18
2018-06-01T09:04:05.060Z,74.82
2018-06-01T09:05:15.162Z,75.21
2018-06-01T09:06:25.251Z,75.51
2018-06-01T09:07:35.333Z,75.15
2018-06-01T09:08:45.172Z,75.05
2018-06-01T09:09:55.000Z,75.55
2018-06-01T09:11:05.223Z,75.38
2018-06-01T09:12:14.807Z,74.76
2018-06-01T09:13:24.632Z,75.45
2018-06-01T09:14:34.722Z,75.55
2018-06-01T09:15:44.807Z,75.25
2018-06-01T09:16:54.921Z,75.21
2018-06-01T09:18:05.056Z,75.84
2018-06-01T09:19:15.181Z,75.81
2018-06-01T09:20:25.016Z,75.31
2018-06-01T09:21:35.104Z,74.66
2018-06-01T09:22:45.280Z,74.04
2018-06-01T09:23:55.371Z,73.88
2018-06-01T09:25:05.221Z,73.52
2018-06-01T09:26:15.307Z,73.52
2018-06-01T09:27:25.405Z,73.36
2018-06-01T09:28:35.532Z,73.86
2018-06-01T09:29:45.377Z,73.66
2018-06-01T09:30:55.212Z,73.4
2018-06-01T09:32:05.314Z,72.94
2018-06-01T09:33:15.412Z,73.73
2018-06-01T09:34:25.332Z,73.63
2018-06-01T09:35:35.429Z,73.54
2018-06-01T09:36:45.544Z,73.93
2018-06-01T09:37:55.631Z,73.93
2018-06-01T09:39:05.538Z,74.22
2018-06-01T09:40:15.365Z,74.42
2018-06-01T09:41:25.463Z,75.07
2018-06-01T09:42:35.555Z,75.53
2018-06-01T09:43:45.698Z,75.1
2018-06-01T09:44:55.864Z,75.56
2018-06-01T09:46:05.986Z,75.56
2018-06-01T09:47:16.089Z,75.16
2018-06-01T09:48:26.204Z,75.36
2018-06-01T09:49:35.792Z,75
2018-06-01T09:50:45.903Z,74.21
2018-06-01T09:51:56.014Z,74.44
2018-06-01T09:53:06.132Z,74.35
2018-06-01T09:54:16.236Z,73.6
2018-06-01T09:55:26.135Z,73.89
2018-06-01T09:56:36.551Z,73.24
2018-06-01T09:57:46.406Z,74.13
2018-06-01T09:58:55.962Z,74.74
2018-06-01T10:00:06.053Z,75.59
2018-06-01T10:01:15.904Z,75.66
2018-06-01T10:02:25.729Z,75.42
2018-06-01T10:03:35.853Z,75.52
2018-06-01T10:04:45.955Z,75.59
2018-06-01T10:05:56.151Z,76.07
2018-06-01T10:07:05.991Z,75.88
2018-06-01T10:08:16.125Z,75.65
2018-06-01T10:09:25.159Z,76.14
2018-06-01T10:10:35.263Z,76.39
2018-06-01T10:11:45.097Z,76.56
2018-06-01T10:12:55.196Z,76.95
2018-06-01T10:14:04.812Z,77.5
2018-06-01T10:15:15.019Z,77.86
2018-06-01T10:16:25.146Z,77.52
2018-06-01T10:17:35.256Z,77.97
2018-06-01T10:18:44.827Z,77.87
2018-06-01T10:19:54.941Z,78.13
2018-06-01T10:21:05.050Z,77.94
2018-06-01T10:22:14.893Z,77.84
2018-06-01T10:23:24.986Z,78.23
2018-06-01T10:24:35.108Z,78.13
2018-06-01T10:25:45.241Z,77.9
2018-06-01T10:26:55.335Z,78.19
2018-06-01T10:28:04.911Z,78.09
2018-06-01T10:29:15.014Z,78
2018-06-01T10:30:25.113Z,78
2018-06-01T10:31:35.000Z,77.57
2018-06-01T10:32:44.835Z,77.27
2018-06-01T10:33:54.968Z,77.22
2018-06-01T10:35:05.055Z,76.98
2018-06-01T10:36:14.877Z,77.37
2018-06-01T10:37:24.780Z,77.31
2018-06-01T10:38:35.024Z,77.57
2018-06-01T10:39:44.995Z,77.12
2018-06-01T10:40:54.840Z,77.67
2018-06-01T10:42:04.948Z,77.37
2018-06-01T10:43:15.087Z,77.08
2018-06-01T10:44:25.193Z,77.76
2018-06-01T10:45:35.045Z,77.62
2018-06-01T10:46:45.139Z,77.62
2018-06-01T10:47:55.255Z,77.83
2018-06-01T10:49:05.139Z,77.83
2018-06-01T10:50:15.274Z,77.88
2018-06-01T10:51:25.391Z,78.08
2018-06-01T10:52:35.537Z,77.88
2018-06-01T10:53:45.628Z,77.98
2018-06-01T10:54:55.767Z,77.98
2018-06-01T10:56:05.608Z,77.78
2018-06-01T10:57:15.721Z,77.75
2018-06-01T10:58:25.815Z,77.94
2018-06-01T10:59:35.648Z,77.94
2018-06-01T11:00:45.791Z,78.1
2018-06-01T11:01:55.872Z,77.71
2018-06-01T11:03:05.700Z,77.81
2018-06-01T11:04:15.785Z,78
2018-06-01T11:05:25.891Z,78
2018-06-01T11:06:35.485Z,77.61
2018-06-01T11:07:45.575Z,77.42
2018-06-01T11:08:55.690Z,77.32
2018-06-01T11:10:05.556Z,77.71
2018-06-01T11:11:15.384Z,77.51
2018-06-01T11:12:25.222Z,77.42
2018-06-01T11:13:35.336Z,77.42
2018-06-01T11:14:45.506Z,77.71
2018-06-01T11:15:55.337Z,77.71
2018-06-01T11:17:05.425Z,77.42
2018-06-01T11:18:15.255Z,77.42
2018-06-01T11:19:25.331Z,77.87
2018-06-01T11:20:35.434Z,77.58
2018-06-01T11:21:45.539Z,77.67
2018-06-01T11:22:55.783Z,77.73
2018-06-01T11:24:05.666Z,77.25
2018-06-01T11:25:15.763Z,77.64
2018-06-01T11:26:25.876Z,77.05
2018-06-01T11:27:36.006Z,76.86
2018-06-01T11:28:45.844Z,77.44
2018-06-01T11:29:55.979Z,77.38
2018-06-01T11:31:06.087Z,77.09
2018-06-01T11:32:16.249Z,76.99
2018-06-01T11:33:26.454Z,77.09
2018-06-01T11:34:36.287Z,76.5
2018-06-01T11:35:46.118Z,76.7
2018-06-01T11:36:56.198Z,76.6
2018-06-01T11:38:06.131Z,76.79
2018-06-01T11:39:16.010Z,76.6
2018-06-01T11:40:26.124Z,76.21
2018-06-01T11:41:36.270Z,76.5
2018-06-01T11:42:46.081Z,76.79
2018-06-01T11:43:56.189Z,76.7
2018-06-01T11:45:06.292Z,76.5
2018-06-01T11:46:16.217Z,76.64
2018-06-01T11:47:26.579Z,76.6
2018-06-01T11:48:36.685Z,76.4
2018-06-01T11:49:46.885Z,76.54
2018-06-01T11:50:57.032Z,76.54
2018-06-01T11:52:07.217Z,76.83
2018-06-01T11:53:17.346Z,75.92
2018-06-01T11:54:27.668Z,75.85
2018-06-01T11:55:38.233Z,75.95
2018-06-01T11:56:48.493Z,75.95
2018-06-01T11:57:58.714Z,75.85
2018-06-01T11:59:09.075Z,75.76
2018-06-01T12:00:19.205Z,75.76
2018-06-01T12:01:29.395Z,75.95
2018-06-01T12:02:39.384Z,76.05
2018-06-01T12:03:49.516Z,76.05
2018-06-01T12:04:59.691Z,76.05
2018-06-01T12:06:09.891Z,76.25
2018-06-01T12:07:20.004Z,75.56
2018-06-01T12:08:30.171Z,75.7
2018-06-01T12:09:40.005Z,75.89
2018-06-01T12:10:50.412Z,75.79
2018-06-01T12:12:00.694Z,75.79
2018-06-01T12:13:10.683Z,75.99
2018-06-01T12:14:21.237Z,75.79
2018-06-01T12:15:31.411Z,75.31
2018-06-01T12:16:41.648Z,75.54
2018-06-01T12:17:51.749Z,75.34
2018-06-01T12:19:01.855Z,75.63
2018-06-01T12:20:12.037Z,75.34
2018-06-01T12:21:21.935Z,75.44
2018-06-01T12:22:31.831Z,75.44
2018-06-01T12:23:42.081Z,75.34
2018-06-01T12:24:51.971Z,75.34
2018-06-01T12:26:02.211Z,75.54
2018-06-01T12:27:12.354Z,75.63
2018-06-01T12:28:22.577Z,75.54
2018-06-01T12:29:32.721Z,74.85
2018-06-01T12:30:42.292Z,75.24
2018-06-01T12:31:52.407Z,74.65
2018-06-01T12:33:02.515Z,74.65
2018-06-01T12:34:12.364Z,74.79
2018-06-01T12:35:21.950Z,75.04
2018-06-01T12:36:32.057Z,74.98
2018-06-01T12:37:42.158Z,75.08
2018-06-01T12:38:52.240Z,75.28
2018-06-01T12:40:02.090Z,75.38
2018-06-01T12:41:12.197Z,75.08
2018-06-01T12:42:22.295Z,75.28
2018-06-01T12:43:32.372Z,75.28
2018-06-01T12:44:42.488Z,74.98
2018-06-01T12:45:52.367Z,75.08
2018-06-01T12:47:02.461Z,74.92
2018-06-01T12:48:12.594Z,74.82
2018-06-01T12:49:22.697Z,74.43
2018-06-01T12:50:32.813Z,74.43
2018-06-01T12:51:42.658Z,74.43
2018-06-01T12:52:52.835Z,74.73
2018-06-01T12:54:03.060Z,74.43
2018-06-01T12:55:13.135Z,74.43
2018-06-01T12:56:23.240Z,74.33
2018-06-01T12:57:33.423Z,74.33
2018-06-01T12:58:43.507Z,74.43
2018-06-01T12:59:53.616Z,74.33
2018-06-01T13:01:03.481Z,74.53
2018-06-01T13:02:13.579Z,74.73
2018-06-01T13:03:23.474Z,74.63
2018-06-01T13:04:33.749Z,74.92
2018-06-01T13:05:43.870Z,75.12
2018-06-01T13:06:53.977Z,74.96
2018-06-01T13:08:03.803Z,74.37
2018-06-01T13:09:14.974Z,74.47
2018-06-01T13:10:25.066Z,74.37
2018-06-01T13:11:35.177Z,74.57
2018-06-01T13:12:45.271Z,74.37
2018-06-01T13:13:55.382Z,74.57
2018-06-01T13:15:05.486Z,74.57
2018-06-01T13:16:15.350Z,74.21
2018-06-01T13:17:25.487Z,74.31
2018-06-01T13:18:35.950Z,74.11
2018-06-01T13:19:46.046Z,74.05
2018-06-01T13:20:56.240Z,74.25
2018-06-01T13:22:06.486Z,74.15
2018-06-01T13:23:17.129Z,74.15
2018-06-01T13:24:27.365Z,73.96
2018-06-01T13:25:37.812Z,74.15
2018-06-01T13:26:48.154Z,74.15
2018-06-01T13:27:58.734Z,74.05
2018-06-01T13:29:08.921Z,74.44
2018-06-01T13:30:19.949Z,74.08
2018-06-01T13:31:30.635Z,74.29
2018-06-01T13:32:41.512Z,73.89
2018-06-01T13:33:52.658Z,73.89
2018-06-01T13:35:03.848Z,74.29
2018-06-01T13:36:15.025Z,73.99
2018-06-01T13:37:26.365Z,74.38
2018-06-01T13:38:37.849Z,74.29
2018-06-01T13:39:51.357Z,74.29
2018-06-01T13:41:03.159Z,74.77
2018-06-01T13:42:14.046Z,74.64
2018-06-01T13:43:25.543Z,74.64
2018-06-01T13:44:37.441Z,74.64
2018-06-01T13:45:49.685Z,74.44
2018-06-01T13:47:01.798Z,74.44
2018-06-01T13:48:12.507Z,74.54
2018-06-01T13:49:24.373Z,74.84
2018-06-01T13:50:34.822Z,75.23
2018-06-01T13:51:44.979Z,75.13
2018-06-01T13:52:55.941Z,75.03
2018-06-01T13:54:06.235Z,75.03
2018-06-01T13:55:17.370Z,75.23
2018-06-01T13:56:27.728Z,75.03
2018-06-01T13:57:39.979Z,74.74
2018-06-01T13:58:50.400Z,74.7
2018-06-01T14:00:01.489Z,74.8
2018-06-01T14:01:12.796Z,74.74
2018-06-01T14:02:24.047Z,74.8
2018-06-01T14:03:36.303Z,74.99
2018-06-01T14:04:47.712Z,75.09
2018-06-01T14:05:59.350Z,75.13
2018-06-01T14:07:11.925Z,75.13
2018-06-01T14:08:26.046Z,75.33
2018-06-01T14:09:37.873Z,75.13
2018-06-01T14:10:49.357Z,75.13
2018-06-01T14:12:00.918Z,75.03
2018-06-01T14:13:12.812Z,75.03
2018-06-01T14:14:23.362Z,74.93
2018-06-01T14:15:34.691Z,75.13
2018-06-01T14:16:46.172Z,75.03
2018-06-01T14:17:56.964Z,74.84
2018-06-01T14:19:07.941Z,75.13
2018-06-01T14:20:19.094Z,75.07
2018-06-01T14:21:29.855Z,74.38
2018-06-01T14:22:40.614Z,74.68
2018-06-01T14:23:50.733Z,74.62
2018-06-01T14:25:00.836Z,74.42
2018-06-01T14:26:10.937Z,74.32
2018-06-01T14:27:21.056Z,74.35
2018-06-01T14:28:30.892Z,74.16
2018-06-01T14:29:40.993Z,74.85
2018-06-01T14:30:50.833Z,75.34
2018-06-01T14:32:00.424Z,74.91
2018-06-01T14:33:10.305Z,74.81
2018-06-01T14:34:20.408Z,74.62
2018-06-01T14:35:30.572Z,74.52
2018-06-01T14:36:40.747Z,74.81
2018-06-01T14:37:50.887Z,74.62
2018-06-01T14:39:01.000Z,74.71
2018-06-01T14:40:10.894Z,74.91
2018-06-01T14:41:21.217Z,74.81
2018-06-01T14:42:31.365Z,74.95
2018-06-01T14:43:41.453Z,75.04
2018-06-01T14:44:51.553Z,75.04
2018-06-01T14:46:01.681Z,74.95
2018-06-01T14:47:11.746Z,75.04
2018-06-01T14:48:22.080Z,75.14
2018-06-01T14:49:31.920Z,75.24
2018-06-01T14:50:42.036Z,75.24
2018-06-01T14:51:52.160Z,75.34
2018-06-01T14:53:02.270Z,75.24
2018-06-01T14:54:12.105Z,74.85
2018-06-01T14:55:21.953Z,75.14
2018-06-01T14:56:32.082Z,74.65
2018-06-01T14:57:42.180Z,74.55
2018-06-01T14:58:52.293Z,74.65
2018-06-01T15:00:02.183Z,75.04
2018-06-01T15:01:12.290Z,75.34
2018-06-01T15:02:22.387Z,75.44
2018-06-01T15:03:32.245Z,75.4
2018-06-01T15:04:42.335Z,75.4
2018-06-01T15:05:52.438Z,75.7
2018-06-01T15:07:02.543Z,75.5
2018-06-01T15:08:12.722Z,76.28
2018-06-01T15:09:22.475Z,76.05
2018-06-01T15:10:32.611Z,75.85
2018-06-01T15:11:42.763Z,76.34
2018-06-01T15:12:52.610Z,76.44
2018-06-01T15:14:02.826Z,76.34
2018-06-01T15:15:12.930Z,76.01
2018-06-01T15:16:23.062Z,75.82
2018-06-01T15:17:33.253Z,76.01
2018-06-01T15:18:43.087Z,76.01
2018-06-01T15:19:53.198Z,76.21
2018-06-01T15:21:03.034Z,76.4
2018-06-01T15:22:12.603Z,76.21
2018-06-01T15:23:22.740Z,76.21
2018-06-01T15:24:32.591Z,76.37
2018-06-01T15:25:42.452Z,76.96
2018-06-01T15:26:52.755Z,76.86
2018-06-01T15:28:02.847Z,76.66
2018-06-01T15:29:12.991Z,76.86
2018-06-01T15:30:23.100Z,77.01
2018-06-01T15:31:33.200Z,76.53
2018-06-01T15:32:43.033Z,76.53
2018-06-01T15:33:52.888Z,76.62
2018-06-01T15:35:02.926Z,76.92
2018-06-01T15:36:12.763Z,77.01
2018-06-01T15:37:22.648Z,77.01